createdAt,value
2018-09-29T00:00:39.886Z,12.30
2018-09-29T00:03:08.684Z,12.20
2018-09-29T00:05:37.624Z,12.20
2018-09-29T00:08:06.075Z,12.20
2018-09-29T00:10:34.773Z,12.10
2018-09-29T00:13:03.134Z,12.10
2018-09-29T00:15:31.767Z,12.10
2018-09-29T00:18:00.187Z,12.10
2018-09-29T00:20:28.786Z,12.10
2018-09-29T00:22:57.451Z,12.10
2018-09-29T00:25:26.376Z,12.10
2018-09-29T00:27:55.057Z,12.10
2018-09-29T00:30:24.363Z,12.10
2018-09-29T00:32:53.242Z,12.00
2018-09-29T00:35:21.843Z,12.10
2018-09-29T00:37:50.859Z,12.00
2018-09-29T00:40:19.938Z,12.00
2018-09-29T00:42:48.615Z,12.00
2018-09-29T00:45:17.199Z,12.00
2018-09-29T00:47:46.183Z,12.00
2018-09-29T00:50:14.559Z,12.00
2018-09-29T00:52:42.950Z,12.00
2018-09-29T00:55:11.342Z,11.90
2018-09-29T00:57:40.615Z,11.90
2018-09-29T01:00:09.030Z,11.80
2018-09-29T01:02:37.983Z,11.80
2018-09-29T01:05:06.641Z,11.70
2018-09-29T01:07:35.278Z,11.60
2018-09-29T01:10:04.027Z,11.60
2018-09-29T01:12:32.727Z,11.50
2018-09-29T01:15:01.727Z,11.40
2018-09-29T01:17:30.081Z,11.30
2018-09-29T01:19:58.476Z,11.30
2018-09-29T01:22:26.830Z,11.10
2018-09-29T01:24:55.250Z,11.10
2018-09-29T01:27:23.935Z,11.10
2018-09-29T01:29:52.545Z,11.00
2018-09-29T01:32:20.900Z,11.00
2018-09-29T01:34:49.266Z,11.00
2018-09-29T01:37:18.351Z,11.00
2018-09-29T01:39:47.207Z,10.90
2018-09-29T01:42:15.594Z,10.90
2018-09-29T01:44:44.205Z,10.90
2018-09-29T01:47:12.715Z,10.80
2018-09-29T01:49:42.063Z,10.70
2018-09-29T01:52:10.670Z,10.70
2018-09-29T01:54:39.810Z,10.60
2018-09-29T01:57:08.550Z,10.50
2018-09-29T01:59:37.178Z,10.40
2018-09-29T02:02:05.522Z,10.40
2018-09-29T02:04:34.610Z,10.30
2018-09-29T02:07:02.970Z,10.30
2018-09-29T02:09:31.938Z,10.30
2018-09-29T02:12:00.290Z,10.20
2018-09-29T02:14:29.478Z,10.20
2018-09-29T02:16:58.067Z,10.10
2018-09-29T02:19:26.662Z,10.00
2018-09-29T02:21:55.146Z,10.00
2018-09-29T02:24:24.091Z,10.00
2018-09-29T02:26:52.735Z,9.90
2018-09-29T02:29:21.396Z,9.80
2018-09-29T02:31:50.471Z,9.80
2018-09-29T02:34:18.867Z,9.70
2018-09-29T02:36:47.839Z,9.70
2018-09-29T02:39:16.203Z,9.70
2018-09-29T02:41:44.810Z,9.60
2018-09-29T02:44:13.452Z,9.50
2018-09-29T02:46:42.059Z,9.50
2018-09-29T02:49:10.650Z,9.50
2018-09-29T02:51:39.547Z,9.40
2018-09-29T02:54:07.899Z,9.30
2018-09-29T02:56:36.277Z,9.30
2018-09-29T02:59:04.970Z,9.30
2018-09-29T03:01:33.362Z,9.30
2018-09-29T03:04:01.947Z,9.10
2018-09-29T03:06:30.287Z,9.10
2018-09-29T03:08:58.658Z,9.00
2018-09-29T03:11:27.319Z,9.00
2018-09-29T03:13:56.206Z,9.00
2018-09-29T03:16:24.866Z,9.00
2018-09-29T03:18:53.223Z,9.00
2018-09-29T03:21:21.604Z,9.00
2018-09-29T03:23:50.203Z,9.00
2018-09-29T03:26:18.842Z,8.90
2018-09-29T03:28:47.208Z,8.80
2018-09-29T03:31:15.569Z,8.70
2018-09-29T03:33:43.926Z,8.70
2018-09-29T03:36:12.340Z,8.60
2018-09-29T03:38:40.703Z,8.60
2018-09-29T03:41:09.350Z,8.50
2018-09-29T03:43:37.721Z,8.50
2018-09-29T03:46:06.104Z,8.40
2018-09-29T03:48:34.481Z,8.40
2018-09-29T03:51:03.375Z,8.30
2018-09-29T03:53:31.999Z,8.30
2018-09-29T03:56:00.398Z,8.20
2018-09-29T03:58:28.996Z,8.20
2018-09-29T04:00:58.226Z,8.20
2018-09-29T04:03:26.804Z,8.10
2018-09-29T04:05:55.396Z,8.20
2018-09-29T04:08:24.088Z,8.20
2018-09-29T04:10:52.762Z,8.20
2018-09-29T04:13:21.139Z,8.10
2018-09-29T04:15:49.904Z,8.10
2018-09-29T04:18:18.606Z,8.10
2018-09-29T04:20:47.296Z,8.10
2018-09-29T04:23:15.978Z,8.10
2018-09-29T04:25:44.326Z,8.00
2018-09-29T04:28:12.662Z,8.00
2018-09-29T04:30:41.320Z,8.10
2018-09-29T04:33:10.015Z,8.10
2018-09-29T04:35:38.695Z,8.10
2018-09-29T04:38:07.131Z,8.10
2018-09-29T04:40:35.494Z,8.10
2018-09-29T04:43:03.903Z,8.00
2018-09-29T04:45:32.211Z,7.90
2018-09-29T04:48:00.567Z,7.90
2018-09-29T04:50:29.227Z,8.00
2018-09-29T04:52:57.615Z,8.00
2018-09-29T04:55:27.061Z,8.00
2018-09-29T04:57:55.419Z,7.90
2018-09-29T05:00:24.055Z,7.80
2018-09-29T05:02:52.654Z,7.70
2018-09-29T05:05:21.142Z,7.70
2018-09-29T05:07:49.527Z,7.70
2018-09-29T05:10:17.887Z,7.80
2018-09-29T05:12:46.519Z,7.80
2018-09-29T05:15:15.430Z,7.70
2018-09-29T05:17:44.058Z,7.70
2018-09-29T05:20:12.675Z,7.70
2018-09-29T05:22:41.097Z,7.80
2018-09-29T05:25:09.508Z,7.80
2018-09-29T05:27:37.910Z,7.70
2018-09-29T05:30:07.554Z,7.70
2018-09-29T05:32:36.564Z,7.60
2018-09-29T05:35:05.743Z,7.70
2018-09-29T05:37:34.113Z,7.80
2018-09-29T05:40:02.795Z,7.80
2018-09-29T05:42:31.134Z,7.80
2018-09-29T05:45:00.067Z,7.80
2018-09-29T05:47:28.427Z,7.90
2018-09-29T05:49:56.770Z,8.00
2018-09-29T05:52:25.122Z,8.10
2018-09-29T05:54:53.759Z,8.10
2018-09-29T05:57:23.000Z,8.20
2018-09-29T05:59:51.359Z,8.30
2018-09-29T06:02:20.023Z,8.40
2018-09-29T06:04:48.624Z,8.60
2018-09-29T06:07:17.107Z,8.60
2018-09-29T06:09:45.648Z,8.70
2018-09-29T06:12:14.587Z,8.80
2018-09-29T06:14:42.951Z,8.80
2018-09-29T06:17:12.547Z,8.90
2018-09-29T06:19:40.966Z,8.90
2018-09-29T06:22:09.615Z,8.90
2018-09-29T06:24:37.955Z,8.90
2018-09-29T06:27:06.379Z,9.00
2018-09-29T06:29:35.718Z,9.10
2018-09-29T06:32:04.115Z,9.20
2018-09-29T06:34:32.497Z,9.30
2018-09-29T06:37:00.859Z,9.50
2018-09-29T06:39:29.239Z,9.50
2018-09-29T06:41:57.896Z,9.60
2018-09-29T06:44:26.555Z,9.50
2018-09-29T06:46:54.906Z,9.50
2018-09-29T06:49:24.560Z,9.60
2018-09-29T06:51:53.532Z,9.50
2018-09-29T06:54:21.922Z,9.60
2018-09-29T06:56:50.410Z,10.00
2018-09-29T06:59:19.025Z,10.10
2018-09-29T07:01:47.659Z,10.30
2018-09-29T07:04:16.031Z,10.30
2018-09-29T07:06:44.411Z,10.40
2018-09-29T07:09:13.663Z,10.60
2018-09-29T07:11:42.515Z,10.90
2018-09-29T07:14:11.186Z,11.00
2018-09-29T07:16:39.560Z,11.10
2018-09-29T07:19:08.202Z,11.10
2018-09-29T07:21:36.633Z,11.00
2018-09-29T07:24:04.979Z,11.30
2018-09-29T07:26:33.344Z,11.50
2018-09-29T07:29:01.679Z,11.60
2018-09-29T07:31:30.108Z,11.50
2018-09-29T07:33:58.667Z,11.20
2018-09-29T07:36:27.306Z,11.20
2018-09-29T07:38:55.659Z,11.40
2018-09-29T07:41:24.010Z,11.40
2018-09-29T07:43:52.363Z,11.20
2018-09-29T07:46:21.046Z,11.10
2018-09-29T07:48:49.435Z,11.50
2018-09-29T07:51:18.398Z,11.40
2018-09-29T07:53:46.786Z,11.40
2018-09-29T07:56:15.191Z,11.50
2018-09-29T07:58:43.510Z,11.40
2018-09-29T08:01:12.107Z,11.40
2018-09-29T08:03:40.751Z,11.40
2018-09-29T08:06:09.448Z,11.70
2018-09-29T08:08:37.831Z,11.60
2018-09-29T08:11:06.887Z,12.00
2018-09-29T08:13:35.257Z,12.00
2018-09-29T08:16:03.635Z,12.50
2018-09-29T08:18:32.316Z,12.30
2018-09-29T08:21:00.686Z,12.40
2018-09-29T08:23:29.399Z,12.60
2018-09-29T08:25:58.223Z,12.90
2018-09-29T08:28:26.942Z,13.00
2018-09-29T08:30:55.312Z,13.20
2018-09-29T08:33:23.683Z,13.40
2018-09-29T08:38:20.376Z,13.60
2018-09-29T08:40:48.755Z,13.80
2018-09-29T08:43:17.457Z,13.70
2018-09-29T08:45:45.822Z,14.00
2018-09-29T08:48:14.227Z,14.20
2018-09-29T08:50:42.555Z,13.90
2018-09-29T08:53:11.195Z,14.30
2018-09-29T08:55:39.523Z,14.20
2018-09-29T08:58:08.447Z,14.20
2018-09-29T09:00:36.867Z,14.30
2018-09-29T09:03:05.263Z,14.50
2018-09-29T09:05:33.614Z,14.60
2018-09-29T09:08:02.255Z,14.40
2018-09-29T09:12:58.989Z,14.90
2018-09-29T09:15:27.650Z,14.80
2018-09-29T09:17:56.156Z,14.60
2018-09-29T09:20:24.522Z,14.90
2018-09-29T09:22:53.568Z,14.70
2018-09-29T09:25:21.923Z,14.70
2018-09-29T09:27:50.287Z,15.00
2018-09-29T09:30:19.029Z,15.00
2018-09-29T09:32:47.350Z,15.10
2018-09-29T09:35:16.040Z,15.00
2018-09-29T09:37:44.408Z,14.90
2018-09-29T09:40:12.762Z,15.40
2018-09-29T09:42:41.615Z,15.60
2018-09-29T09:45:09.982Z,15.80
2018-09-29T09:47:38.999Z,15.90
2018-09-29T09:50:07.355Z,15.90
2018-09-29T09:52:35.723Z,16.00
2018-09-29T09:55:04.756Z,16.10
2018-09-29T09:57:33.375Z,16.40
2018-09-29T10:00:02.324Z,16.50
2018-09-29T10:02:35.963Z,16.40
2018-09-29T10:05:04.855Z,16.50
2018-09-29T10:07:34.054Z,16.70
2018-09-29T10:10:02.874Z,16.90
2018-09-29T10:12:31.255Z,17.00
2018-09-29T10:14:59.629Z,16.80
2018-09-29T10:17:28.024Z,16.90
2018-09-29T10:19:56.378Z,17.10
2018-09-29T10:22:24.793Z,17.00
2018-09-29T10:24:53.166Z,17.30
2018-09-29T10:27:21.874Z,17.30
2018-09-29T10:29:50.514Z,17.10
2018-09-29T10:32:19.500Z,17.20
2018-09-29T10:34:47.861Z,17.50
2018-09-29T10:37:16.234Z,17.50
2018-09-29T10:39:44.815Z,17.70
2018-09-29T10:42:13.550Z,18.40
2018-09-29T10:44:42.719Z,18.00
2018-09-29T10:47:11.093Z,18.00
2018-09-29T10:49:39.702Z,18.00
2018-09-29T10:52:08.398Z,17.90
2018-09-29T10:54:36.759Z,17.90
2018-09-29T10:57:05.406Z,18.30
2018-09-29T10:59:34.019Z,18.20
2018-09-29T11:02:02.783Z,18.70
2018-09-29T11:04:31.406Z,19.00
2018-09-29T11:06:59.771Z,18.60
2018-09-29T11:09:28.426Z,18.50
2018-09-29T11:11:57.066Z,19.10
2018-09-29T11:14:25.772Z,19.40
2018-09-29T11:16:54.087Z,18.80
2018-09-29T11:19:22.722Z,18.60
2018-09-29T11:21:51.383Z,18.80
2018-09-29T11:24:20.471Z,19.40
2018-09-29T11:26:48.941Z,18.80
2018-09-29T11:29:17.735Z,18.60
2018-09-29T11:31:46.088Z,19.00
2018-09-29T11:34:14.510Z,18.60
2018-09-29T11:36:43.147Z,19.20
2018-09-29T11:39:12.589Z,19.30
2018-09-29T11:41:41.158Z,19.10
2018-09-29T11:44:09.931Z,18.80
2018-09-29T11:46:38.341Z,18.70
2018-09-29T11:49:06.745Z,18.50
2018-09-29T11:51:35.091Z,18.50
2018-09-29T11:54:03.743Z,19.00
2018-09-29T11:56:32.431Z,18.80
2018-09-29T11:59:01.319Z,19.10
2018-09-29T12:01:29.691Z,19.10
2018-09-29T12:03:58.320Z,19.20
2018-09-29T12:06:27.125Z,19.40
2018-09-29T12:08:55.386Z,19.10
2018-09-29T12:11:24.111Z,19.30
2018-09-29T12:13:52.508Z,19.20
2018-09-29T12:16:21.164Z,19.80
2018-09-29T12:18:49.779Z,19.80
2018-09-29T12:21:18.180Z,20.30
2018-09-29T12:23:47.047Z,20.40
2018-09-29T12:26:16.434Z,20.80
2018-09-29T12:28:45.079Z,20.90
2018-09-29T12:31:13.453Z,20.30
2018-09-29T12:33:41.811Z,20.20
2018-09-29T12:36:10.451Z,20.30
2018-09-29T12:38:39.067Z,20.60
2018-09-29T12:41:07.447Z,20.10
2018-09-29T12:43:36.124Z,20.00
2018-09-29T12:46:04.528Z,20.10
2018-09-29T12:48:33.699Z,20.40
2018-09-29T12:51:02.102Z,20.80
2018-09-29T12:53:30.470Z,20.40
2018-09-29T12:55:58.850Z,20.30
2018-09-29T12:58:27.202Z,20.10
2018-09-29T13:00:56.358Z,19.80
2018-09-29T13:03:24.730Z,19.50
2018-09-29T13:05:53.102Z,19.20
2018-09-29T13:08:22.158Z,19.40
2018-09-29T13:10:50.867Z,19.30
2018-09-29T13:13:19.734Z,19.70
2018-09-29T13:15:48.099Z,20.20
2018-09-29T13:18:16.467Z,20.00
2018-09-29T13:20:44.844Z,20.00
2018-09-29T13:23:13.210Z,19.90
2018-09-29T13:25:41.568Z,19.70
2018-09-29T13:28:09.964Z,19.50
2018-09-29T13:30:38.607Z,19.30
2018-09-29T13:33:06.969Z,19.40
2018-09-29T13:35:35.558Z,19.10
2018-09-29T13:38:03.942Z,18.60
2018-09-29T13:40:32.414Z,18.60
2018-09-29T13:43:00.771Z,18.00
2018-09-29T13:45:29.675Z,18.00
2018-09-29T13:47:58.671Z,18.10
2018-09-29T13:50:27.026Z,17.90
2018-09-29T13:52:55.387Z,17.70
2018-09-29T13:55:23.755Z,17.80
2018-09-29T13:57:52.130Z,17.50
2018-09-29T14:00:21.086Z,17.50
2018-09-29T14:02:49.803Z,17.50
2018-09-29T14:05:18.494Z,17.50
2018-09-29T14:07:46.847Z,17.50
2018-09-29T14:10:15.506Z,17.50
2018-09-29T14:12:44.195Z,17.60
2018-09-29T14:15:12.571Z,17.40
2018-09-29T14:17:41.463Z,17.50
2018-09-29T14:20:09.887Z,17.50
2018-09-29T14:22:38.454Z,17.50
2018-09-29T14:25:07.639Z,17.40
2018-09-29T14:27:36.719Z,17.40
2018-09-29T14:30:05.320Z,17.50
2018-09-29T14:32:33.935Z,17.50
2018-09-29T14:35:03.219Z,17.40
2018-09-29T14:37:31.571Z,17.30
2018-09-29T14:39:59.966Z,17.30
2018-09-29T14:42:28.931Z,17.40
2018-09-29T14:44:57.395Z,17.50
2018-09-29T14:47:25.994Z,17.50
2018-09-29T14:49:54.602Z,17.40
2018-09-29T14:52:23.348Z,17.30
2018-09-29T14:54:51.659Z,17.40
2018-09-29T14:57:20.278Z,17.30
2018-09-29T14:59:48.975Z,17.20
2018-09-29T15:02:17.631Z,17.20
2018-09-29T15:04:46.032Z,17.20
2018-09-29T15:07:15.096Z,17.10
2018-09-29T15:09:44.016Z,17.20
2018-09-29T15:12:12.685Z,17.20
2018-09-29T15:14:41.308Z,17.10
2018-09-29T15:17:10.228Z,17.10
2018-09-29T15:19:38.622Z,17.00
2018-09-29T15:22:07.051Z,17.00
2018-09-29T15:24:35.788Z,17.00
2018-09-29T15:27:04.654Z,17.00
2018-09-29T15:29:33.342Z,16.90
2018-09-29T15:32:02.234Z,16.90
2018-09-29T15:34:30.623Z,16.90
2018-09-29T15:36:59.282Z,16.90
2018-09-29T15:39:27.899Z,17.00
2018-09-29T15:41:56.670Z,17.00
2018-09-29T15:44:25.587Z,16.80
2018-09-29T15:46:54.471Z,16.90
2018-09-29T15:49:23.134Z,16.80
2018-09-29T15:51:51.505Z,16.80
2018-09-29T15:54:20.095Z,16.80
2018-09-29T15:56:49.014Z,16.80
2018-09-29T15:59:17.670Z,16.60
2018-09-29T16:01:46.247Z,16.50
2018-09-29T16:04:15.247Z,16.50
2018-09-29T16:06:44.240Z,16.40
2018-09-29T16:09:12.907Z,16.40
2018-09-29T16:11:41.433Z,16.40
2018-09-29T16:14:10.059Z,16.40
2018-09-29T16:16:38.711Z,16.30
2018-09-29T16:19:07.294Z,16.20
2018-09-29T16:21:36.033Z,16.10
2018-09-29T16:24:04.382Z,16.10
2018-09-29T16:26:33.314Z,16.00
2018-09-29T16:29:01.826Z,15.90
2018-09-29T16:31:30.786Z,15.80
2018-09-29T16:33:59.180Z,15.70
2018-09-29T16:36:27.565Z,15.60
2018-09-29T16:38:55.957Z,15.60
2018-09-29T16:41:24.817Z,15.50
2018-09-29T16:43:53.169Z,15.50
2018-09-29T16:46:21.549Z,15.30
2018-09-29T16:48:50.207Z,15.30
2018-09-29T16:51:18.884Z,15.20
2018-09-29T16:53:48.754Z,15.10
2018-09-29T16:56:17.619Z,15.00
2018-09-29T16:58:46.002Z,14.90
2018-09-29T17:01:14.370Z,14.70
2018-09-29T17:06:12.084Z,14.50
2018-09-29T17:08:40.440Z,14.50
2018-09-29T17:11:09.107Z,14.40
2018-09-29T17:13:37.827Z,14.40
2018-09-29T17:16:07.203Z,14.30
2018-09-29T17:18:35.728Z,14.20
2018-09-29T17:21:04.124Z,14.10
2018-09-29T17:23:32.786Z,14.00
2018-09-29T17:26:01.495Z,13.90
2018-09-29T17:28:30.111Z,13.80
2018-09-29T17:30:58.831Z,13.70
2018-09-29T17:33:28.107Z,13.70
2018-09-29T17:35:56.742Z,13.60
2018-09-29T17:38:25.814Z,13.60
2018-09-29T17:40:54.499Z,13.50
2018-09-29T17:43:23.135Z,13.40
2018-09-29T17:45:51.511Z,13.30
2018-09-29T17:48:19.883Z,13.20
2018-09-29T17:50:48.525Z,13.10
2018-09-29T17:53:17.159Z,13.00
2018-09-29T17:55:45.546Z,12.80
2018-09-29T17:58:13.954Z,12.70
2018-09-29T18:00:42.861Z,12.60
2018-09-29T18:03:11.514Z,12.40
2018-09-29T18:05:39.888Z,12.40
2018-09-29T18:08:09.862Z,12.30
2018-09-29T18:10:39.380Z,12.20
2018-09-29T18:13:08.302Z,12.20
2018-09-29T18:15:36.727Z,12.20
2018-09-29T18:18:05.183Z,12.10
2018-09-29T18:20:33.704Z,12.20
2018-09-29T18:23:03.163Z,12.10
2018-09-29T18:25:31.651Z,12.00
2018-09-29T18:28:00.052Z,11.90
2018-09-29T18:30:28.850Z,11.80
2018-09-29T18:32:57.734Z,11.80
2018-09-29T18:35:26.091Z,11.80
2018-09-29T18:37:54.823Z,11.70
2018-09-29T18:40:23.475Z,11.70
2018-09-29T18:42:51.862Z,11.60
2018-09-29T18:45:20.240Z,11.50
2018-09-29T18:47:48.846Z,11.40
2018-09-29T18:50:17.848Z,11.20
2018-09-29T18:52:46.612Z,11.00
2018-09-29T18:55:15.007Z,10.90
2018-09-29T18:57:43.443Z,10.70
2018-09-29T19:00:12.471Z,10.80
2018-09-29T19:02:40.940Z,10.70
2018-09-29T19:05:10.093Z,10.60
2018-09-29T19:07:38.574Z,10.50
2018-09-29T19:10:08.172Z,10.50
2018-09-29T19:12:36.935Z,10.50
2018-09-29T19:15:06.228Z,10.50
2018-09-29T19:17:34.806Z,10.50
2018-09-29T19:20:03.278Z,10.50
2018-09-29T19:22:31.838Z,10.40
2018-09-29T19:25:00.370Z,10.30
2018-09-29T19:27:29.083Z,10.20
2018-09-29T19:29:57.845Z,10.20
2018-09-29T19:32:26.227Z,10.20
2018-09-29T19:34:55.271Z,10.20
2018-09-29T19:37:24.251Z,10.20
2018-09-29T19:39:52.944Z,10.20
2018-09-29T19:42:21.513Z,10.10
2018-09-29T19:44:49.955Z,10.00
2018-09-29T19:47:18.567Z,10.00
2018-09-29T19:49:47.347Z,10.10
2018-09-29T19:52:15.698Z,10.10
2018-09-29T19:54:44.881Z,10.10
2018-09-29T19:57:13.272Z,10.10
2018-09-29T19:59:42.693Z,10.10
2018-09-29T20:02:11.060Z,10.00
2018-09-29T20:04:39.471Z,10.00
2018-09-29T20:07:08.146Z,10.00
2018-09-29T20:09:36.530Z,9.90
2018-09-29T20:12:04.928Z,9.80
2018-09-29T20:14:33.613Z,9.80
2018-09-29T20:17:02.298Z,9.80
2018-09-29T20:19:30.983Z,9.70
2018-09-29T20:21:59.616Z,9.50
2018-09-29T20:24:28.083Z,9.20
2018-09-29T20:26:56.592Z,9.10
2018-09-29T20:29:24.935Z,9.10
2018-09-29T20:31:53.290Z,9.20
2018-09-29T20:34:21.650Z,9.10
2018-09-29T20:36:50.597Z,8.80
2018-09-29T20:39:19.543Z,8.60
2018-09-29T20:41:48.230Z,8.40
2018-09-29T20:44:16.591Z,8.00
2018-09-29T20:46:44.962Z,8.10
2018-09-29T20:49:13.543Z,8.10
2018-09-29T20:51:41.915Z,8.00
2018-09-29T20:54:10.303Z,8.10
2018-09-29T20:56:38.704Z,8.10
2018-09-29T20:59:07.384Z,8.10
2018-09-29T21:01:36.408Z,8.00
2018-09-29T21:04:04.772Z,7.90
2018-09-29T21:06:33.662Z,7.80
2018-09-29T21:09:02.025Z,7.80
2018-09-29T21:11:30.400Z,7.80
2018-09-29T21:13:58.752Z,7.80
2018-09-29T21:16:27.122Z,7.80
2018-09-29T21:18:56.086Z,7.70
2018-09-29T21:21:25.155Z,7.50
2018-09-29T21:23:54.259Z,7.20
2018-09-29T21:26:22.650Z,7.00
2018-09-29T21:28:50.999Z,7.00
2018-09-29T21:31:19.351Z,7.00
2018-09-29T21:33:47.694Z,7.00
2018-09-29T21:36:16.466Z,7.00
2018-09-29T21:38:45.130Z,7.00
2018-09-29T21:41:13.495Z,7.00
2018-09-29T21:43:42.173Z,6.90
2018-09-29T21:46:10.565Z,7.00
2018-09-29T21:48:38.949Z,7.00
2018-09-29T21:51:07.851Z,6.90
2018-09-29T21:53:36.527Z,6.80
2018-09-29T21:56:05.414Z,6.60
2018-09-29T22:01:08.210Z,6.10
2018-09-29T22:03:36.847Z,6.10
2018-09-29T22:06:05.235Z,6.10
2018-09-29T22:08:33.921Z,6.20
2018-09-29T22:11:02.552Z,6.10
2018-09-29T22:13:30.923Z,6.00
2018-09-29T22:15:59.279Z,6.00
2018-09-29T22:18:28.190Z,6.00
2018-09-29T22:20:56.560Z,6.00
2018-09-29T22:23:25.171Z,6.10
2018-09-29T22:25:53.673Z,6.10
2018-09-29T22:28:22.084Z,6.00
2018-09-29T22:30:50.459Z,6.00
2018-09-29T22:33:18.810Z,6.00
2018-09-29T22:35:48.374Z,6.10
2018-09-29T22:38:17.181Z,6.10
2018-09-29T22:40:45.591Z,6.10
2018-09-29T22:43:16.902Z,6.00
2018-09-29T22:45:45.294Z,6.00
2018-09-29T22:48:13.959Z,5.90
2018-09-29T22:50:42.964Z,5.80
2018-09-29T22:53:11.333Z,5.70
2018-09-29T22:55:39.950Z,5.60
2018-09-29T22:58:08.930Z,5.60
2018-09-29T23:00:38.670Z,5.70
2018-09-29T23:03:07.175Z,5.90
2018-09-29T23:05:35.567Z,5.80
2018-09-29T23:08:04.463Z,5.60
2018-09-29T23:10:32.888Z,5.50
2018-09-29T23:13:02.004Z,5.40
2018-09-29T23:15:30.528Z,5.30
2018-09-29T23:17:59.207Z,5.30
2018-09-29T23:20:27.824Z,5.20
2018-09-29T23:22:56.475Z,5.20
2018-09-29T23:25:25.670Z,5.20
2018-09-29T23:27:54.270Z,5.20
2018-09-29T23:30:22.642Z,5.20
2018-09-29T23:32:51.338Z,5.20
2018-09-29T23:35:19.687Z,5.20
2018-09-29T23:37:48.326Z,5.20
2018-09-29T23:40:16.672Z,5.20
2018-09-29T23:42:45.019Z,5.20
2018-09-29T23:45:13.663Z,5.20
2018-09-29T23:47:42.022Z,5.10
2018-09-29T23:50:11.603Z,5.00
2018-09-29T23:52:40.235Z,5.00
2018-09-29T23:55:08.402Z,4.90
2018-09-29T23:57:37.375Z,4.90
